createdAt,value
2018-05-25T00:00:19.916Z,5.13
2018-05-25T00:02:48.123Z,7.33
2018-05-25T00:05:16.319Z,8.30
2018-05-25T00:07:44.510Z,8.13
2018-05-25T00:10:12.711Z,7.07
2018-05-25T00:12:40.918Z,6.00
2018-05-25T00:15:09.123Z,7.10
2018-05-25T00:17:37.315Z,6.10
2018-05-25T00:20:05.516Z,6.00
2018-05-25T00:22:33.726Z,7.43
2018-05-25T00:25:01.931Z,6.57
2018-05-25T00:27:30.126Z,6.80
2018-05-25T00:29:59.094Z,6.60
2018-05-25T00:32:27.290Z,5.37
2018-05-25T00:34:56.271Z,5.80
2018-05-25T00:37:24.461Z,5.57
2018-05-25T00:39:52.675Z,6.47
2018-05-25T00:42:20.878Z,5.87
2018-05-25T00:44:49.075Z,5.50
2018-05-25T00:47:17.283Z,7.33
2018-05-25T00:49:45.497Z,5.40
2018-05-25T00:52:13.688Z,5.80
2018-05-25T00:54:42.699Z,7.97
2018-05-25T00:57:10.923Z,5.87
2018-05-25T00:59:39.125Z,5.83
2018-05-25T01:02:07.334Z,6.20
2018-05-25T01:04:35.543Z,6.07
2018-05-25T01:07:03.736Z,7.10
2018-05-25T01:09:31.922Z,5.77
2018-05-25T01:12:00.891Z,6.93
2018-05-25T01:14:29.102Z,6.00
2018-05-25T01:16:58.082Z,5.77
2018-05-25T01:19:27.042Z,5.70
2018-05-25T01:21:55.295Z,7.30
2018-05-25T01:24:23.494Z,6.43
2018-05-25T01:26:51.698Z,5.87
2018-05-25T01:29:19.918Z,6.50
2018-05-25T01:31:48.131Z,5.60
2018-05-25T01:34:16.418Z,5.87
2018-05-25T01:36:44.626Z,6.33
2018-05-25T01:39:12.867Z,8.10
2018-05-25T01:41:41.242Z,6.50
2018-05-25T01:44:10.203Z,7.40
2018-05-25T01:46:38.407Z,5.43
2018-05-25T01:49:07.392Z,6.03
2018-05-25T01:51:35.582Z,6.20
2018-05-25T01:54:03.814Z,7.53
2018-05-25T01:56:32.022Z,6.60
2018-05-25T01:59:00.219Z,6.40
2018-05-25T02:01:28.423Z,6.73
2018-05-25T02:03:56.622Z,5.73
2018-05-25T02:06:24.890Z,6.40
2018-05-25T02:08:53.088Z,6.40
2018-05-25T02:11:21.278Z,6.10
2018-05-25T02:13:49.474Z,6.27
2018-05-25T02:16:17.686Z,5.80
2018-05-25T02:18:45.889Z,6.07
2018-05-25T02:21:14.087Z,6.77
2018-05-25T02:23:42.282Z,7.13
2018-05-25T02:26:10.482Z,6.03
2018-05-25T02:28:38.861Z,5.57
2018-05-25T02:31:07.076Z,7.70
2018-05-25T02:33:35.279Z,5.50
2018-05-25T02:36:03.500Z,5.93
2018-05-25T02:38:31.668Z,5.33
2018-05-25T02:40:59.866Z,6.97
2018-05-25T02:43:28.157Z,8.77
2018-05-25T02:45:56.353Z,6.83
2018-05-25T02:48:24.555Z,7.57
2018-05-25T02:50:52.747Z,6.27
2018-05-25T02:53:21.712Z,6.37
2018-05-25T02:55:50.106Z,5.93
2018-05-25T02:58:18.305Z,5.80
2018-05-25T03:00:46.509Z,6.20
2018-05-25T03:03:14.703Z,6.37
2018-05-25T03:05:42.903Z,7.27
2018-05-25T03:08:11.117Z,6.40
2018-05-25T03:10:39.368Z,6.97
2018-05-25T03:13:08.340Z,6.43
2018-05-25T03:15:36.569Z,5.93
2018-05-25T03:18:04.762Z,7.27
2018-05-25T03:20:32.963Z,6.10
2018-05-25T03:23:01.934Z,6.40
2018-05-25T03:25:30.219Z,6.00
2018-05-25T03:27:58.418Z,6.10
2018-05-25T03:30:26.610Z,6.73
2018-05-25T03:32:54.823Z,6.40
2018-05-25T03:35:23.023Z,6.20
2018-05-25T03:37:51.223Z,6.90
2018-05-25T03:40:19.427Z,8.40
2018-05-25T03:42:47.624Z,7.37
2018-05-25T03:45:15.826Z,6.43
2018-05-25T03:47:44.076Z,7.13
2018-05-25T03:50:12.266Z,8.40
2018-05-25T03:52:40.467Z,6.60
2018-05-25T03:55:08.667Z,5.53
2018-05-25T03:57:36.880Z,8.60
2018-05-25T04:00:16.816Z,6.70
2018-05-25T04:02:45.037Z,5.70
2018-05-25T04:05:14.038Z,6.73
2018-05-25T04:07:42.229Z,5.70
2018-05-25T04:10:10.422Z,7.03
2018-05-25T04:12:38.650Z,6.67
2018-05-25T04:15:06.860Z,6.80
2018-05-25T04:17:35.066Z,7.30
2018-05-25T04:20:03.262Z,5.80
2018-05-25T04:22:31.466Z,7.13
2018-05-25T04:24:59.666Z,6.57
2018-05-25T04:27:27.871Z,10.37
2018-05-25T04:29:56.855Z,6.10
2018-05-25T04:32:25.047Z,8.10
2018-05-25T04:34:53.248Z,6.20
2018-05-25T04:37:21.463Z,5.73
2018-05-25T04:39:49.657Z,8.23
2018-05-25T04:42:18.627Z,6.37
2018-05-25T04:44:46.842Z,6.20
2018-05-25T04:47:15.034Z,6.40
2018-05-25T04:49:43.230Z,6.40
2018-05-25T04:52:11.425Z,6.10
2018-05-25T04:54:39.639Z,6.20
2018-05-25T04:57:07.959Z,6.00
2018-05-25T04:59:36.161Z,6.13
2018-05-25T05:02:04.380Z,6.40
2018-05-25T05:04:32.592Z,5.57
2018-05-25T05:07:00.810Z,5.97
2018-05-25T05:09:29.023Z,6.50
2018-05-25T05:11:57.322Z,6.07
2018-05-25T05:14:25.524Z,6.10
2018-05-25T05:16:53.738Z,7.27
2018-05-25T05:19:21.955Z,8.80
2018-05-25T05:21:50.166Z,6.50
2018-05-25T05:24:18.369Z,6.10
2018-05-25T05:26:46.560Z,6.57
2018-05-25T05:29:14.759Z,7.60
2018-05-25T05:31:42.964Z,6.27
2018-05-25T05:34:11.155Z,5.30
2018-05-25T05:36:39.353Z,5.90
2018-05-25T05:39:07.559Z,7.37
2018-05-25T05:41:35.766Z,5.73
2018-05-25T05:44:03.974Z,5.47
2018-05-25T05:46:32.182Z,6.80
2018-05-25T05:49:00.414Z,5.90
2018-05-25T05:51:29.398Z,5.93
2018-05-25T05:53:57.793Z,5.50
2018-05-25T05:56:25.970Z,5.50
2018-05-25T05:58:54.573Z,6.40
2018-05-25T06:01:22.793Z,6.50
2018-05-25T06:03:50.999Z,8.20
2018-05-25T06:06:19.199Z,5.50
2018-05-25T06:08:47.443Z,5.90
2018-05-25T06:11:15.599Z,7.00
2018-05-25T06:13:43.806Z,6.83
2018-05-25T06:16:12.005Z,5.53
2018-05-25T06:18:40.197Z,7.80
2018-05-25T06:21:08.427Z,6.00
2018-05-25T06:23:36.639Z,6.60
2018-05-25T06:26:04.840Z,8.50
2018-05-25T06:28:33.081Z,7.30
2018-05-25T06:31:01.998Z,6.33
2018-05-25T06:33:30.203Z,9.23
2018-05-25T06:35:58.407Z,7.27
2018-05-25T06:38:26.624Z,12.43
2018-05-25T06:40:54.842Z,10.77
2018-05-25T06:43:23.047Z,10.45
2018-05-25T06:45:51.263Z,9.00
2018-05-25T06:48:19.467Z,8.63
2018-05-25T06:50:47.723Z,8.47
2018-05-25T06:53:15.866Z,30.60
2018-05-25T06:55:44.070Z,29.80
2018-05-25T06:58:12.307Z,31.73
2018-05-25T07:00:40.514Z,28.77
2018-05-25T07:03:09.513Z,32.37
2018-05-25T07:05:38.474Z,39.97
2018-05-25T07:08:06.676Z,34.53
2018-05-25T07:10:35.652Z,29.07
2018-05-25T07:13:04.371Z,34.37
2018-05-25T07:15:32.578Z,35.93
2018-05-25T07:18:00.788Z,31.27
2018-05-25T07:20:29.754Z,31.73
2018-05-25T07:22:58.046Z,33.17
2018-05-25T07:25:26.250Z,36.30
2018-05-25T07:27:54.475Z,33.27
2018-05-25T07:30:22.679Z,35.43
2018-05-25T07:32:50.888Z,33.77
2018-05-25T07:35:19.108Z,33.97
2018-05-25T07:37:47.323Z,41.90
2018-05-25T07:40:15.531Z,37.60
2018-05-25T07:42:43.764Z,36.30
2018-05-25T07:45:11.962Z,34.30
2018-05-25T07:47:40.180Z,33.93
2018-05-25T07:50:08.379Z,36.10
2018-05-25T07:52:37.362Z,32.93
2018-05-25T07:55:06.331Z,30.37
2018-05-25T07:57:34.534Z,28.17
2018-05-25T08:00:02.764Z,28.23
2018-05-25T08:02:31.010Z,31.40
2018-05-25T08:04:59.211Z,22.37
2018-05-25T08:07:27.413Z,27.30
2018-05-25T08:09:55.615Z,22.73
2018-05-25T08:12:23.842Z,25.53
2018-05-25T08:14:52.047Z,29.17
2018-05-25T08:17:20.254Z,27.00
2018-05-25T08:19:48.462Z,27.17
2018-05-25T08:22:16.662Z,32.17
2018-05-25T08:24:45.639Z,24.80
2018-05-25T08:27:13.846Z,25.70
2018-05-25T08:29:42.096Z,31.33
2018-05-25T08:32:10.473Z,29.07
2018-05-25T08:34:39.671Z,27.13
2018-05-25T08:37:07.878Z,28.73
2018-05-25T08:39:36.118Z,31.33
2018-05-25T08:42:04.303Z,33.13
2018-05-25T08:44:33.295Z,29.17
2018-05-25T08:47:02.274Z,27.93
2018-05-25T08:49:31.281Z,28.33
2018-05-25T08:51:59.475Z,25.67
2018-05-25T08:54:27.709Z,26.17
2018-05-25T08:56:55.906Z,30.73
2018-05-25T08:59:24.113Z,28.37
2018-05-25T09:01:52.336Z,27.70
2018-05-25T09:04:20.583Z,29.07
2018-05-25T09:06:48.819Z,29.03
2018-05-25T09:09:17.016Z,32.63
2018-05-25T09:11:45.214Z,29.07
2018-05-25T09:14:13.449Z,29.63
2018-05-25T09:16:41.650Z,28.23
2018-05-25T09:19:09.904Z,11.47
2018-05-25T09:21:38.123Z,9.53
2018-05-25T09:24:06.348Z,6.97
2018-05-25T09:26:34.531Z,8.07
2018-05-25T09:29:02.747Z,7.50
2018-05-25T09:31:30.959Z,7.20
2018-05-25T09:33:59.155Z,9.33
2018-05-25T09:36:27.368Z,8.13
2018-05-25T09:38:55.580Z,7.07
2018-05-25T09:41:23.775Z,6.63
2018-05-25T09:43:52.007Z,6.10
2018-05-25T09:46:20.988Z,5.93
2018-05-25T09:48:49.241Z,5.63
2018-05-25T09:51:17.439Z,6.20
2018-05-25T09:53:45.671Z,5.93
2018-05-25T09:56:13.902Z,5.73
2018-05-25T09:58:42.107Z,5.73
2018-05-25T10:01:10.346Z,5.27
2018-05-25T10:03:39.319Z,5.43
2018-05-25T10:06:07.537Z,4.70
2018-05-25T10:08:35.754Z,4.90
2018-05-25T10:11:03.956Z,6.23
2018-05-25T10:13:32.204Z,4.73
2018-05-25T10:16:00.416Z,5.20
2018-05-25T10:18:28.638Z,5.97
2018-05-25T10:20:56.863Z,4.70
2018-05-25T10:23:25.087Z,5.37
2018-05-25T10:25:53.421Z,4.83
2018-05-25T10:28:21.647Z,5.10
2018-05-25T10:30:49.847Z,5.00
2018-05-25T10:33:18.891Z,5.53
2018-05-25T10:35:47.099Z,4.57
2018-05-25T10:38:15.315Z,4.73
2018-05-25T10:40:43.581Z,4.70
2018-05-25T10:43:11.788Z,4.53
2018-05-25T10:45:40.065Z,4.63
2018-05-25T10:48:08.373Z,6.70
2018-05-25T10:50:36.556Z,4.50
2018-05-25T10:53:05.548Z,5.33
2018-05-25T10:55:34.535Z,4.80
2018-05-25T10:58:02.738Z,4.93
2018-05-25T11:00:30.978Z,4.90
2018-05-25T11:02:59.952Z,4.47
2018-05-25T11:05:28.182Z,5.07
2018-05-25T11:07:56.390Z,4.37
2018-05-25T11:10:24.599Z,5.17
2018-05-25T11:12:52.841Z,4.50
2018-05-25T11:15:21.119Z,5.23
2018-05-25T11:17:49.483Z,4.00
2018-05-25T11:20:23.344Z,4.23
2018-05-25T11:22:54.632Z,7.83
2018-05-25T11:25:22.922Z,4.37
2018-05-25T11:27:51.206Z,3.63
2018-05-25T11:30:19.411Z,4.30
2018-05-25T11:32:47.660Z,4.00
2018-05-25T11:35:15.883Z,4.60
2018-05-25T11:37:44.881Z,4.40
2018-05-25T11:40:13.110Z,4.13
2018-05-25T11:42:41.361Z,3.93
2018-05-25T11:45:10.112Z,4.47
2018-05-25T11:47:38.521Z,4.23
2018-05-25T11:50:06.849Z,4.03
2018-05-25T11:52:35.084Z,4.33
2018-05-25T11:55:03.295Z,4.00
2018-05-25T11:57:32.288Z,4.00
2018-05-25T12:00:00.548Z,4.57
2018-05-25T12:02:28.867Z,4.73
2018-05-25T12:04:57.823Z,4.17
2018-05-25T12:07:26.060Z,4.50
2018-05-25T12:09:54.911Z,6.07
2018-05-25T12:12:23.121Z,4.50
2018-05-25T12:14:51.547Z,6.03
2018-05-25T12:17:19.742Z,16.10
2018-05-25T12:19:47.999Z,13.77
2018-05-25T12:22:16.205Z,11.40
2018-05-25T12:24:44.408Z,10.93
2018-05-25T12:27:12.606Z,12.40
2018-05-25T12:29:40.835Z,13.30
2018-05-25T12:32:09.046Z,12.23
2018-05-25T12:34:37.258Z,13.40
2018-05-25T12:37:05.471Z,13.93
2018-05-25T12:39:33.675Z,14.63
2018-05-25T12:42:01.891Z,14.37
2018-05-25T12:44:30.110Z,12.77
2018-05-25T12:46:58.311Z,10.63
2018-05-25T12:49:26.519Z,15.87
2018-05-25T12:51:54.732Z,12.03
2018-05-25T12:54:23.717Z,14.50
2018-05-25T12:56:51.930Z,13.80
2018-05-25T12:59:20.138Z,14.73
2018-05-25T13:01:48.363Z,12.80
2018-05-25T13:04:16.618Z,13.63
2018-05-25T13:06:44.790Z,12.73
2018-05-25T13:09:13.023Z,13.30
2018-05-25T13:11:41.341Z,12.77
2018-05-25T13:14:09.513Z,17.03
2018-05-25T13:16:37.717Z,16.93
2018-05-25T13:19:05.964Z,12.77
2018-05-25T13:21:34.942Z,14.70
2018-05-25T13:24:03.168Z,16.43
2018-05-25T13:26:31.418Z,14.97
2018-05-25T13:28:59.604Z,11.33
2018-05-25T13:31:27.811Z,12.50
2018-05-25T13:33:56.031Z,11.53
2018-05-25T13:36:24.237Z,9.47
2018-05-25T13:38:52.447Z,11.53
2018-05-25T13:41:20.665Z,12.43
2018-05-25T13:43:48.875Z,15.30
2018-05-25T13:46:17.098Z,9.40
2018-05-25T13:48:45.310Z,12.83
2018-05-25T13:51:13.521Z,13.17
2018-05-25T13:53:41.727Z,16.27
2018-05-25T13:56:10.706Z,15.93
2018-05-25T13:58:38.922Z,14.73
2018-05-25T14:01:07.126Z,14.23
2018-05-25T14:03:35.339Z,12.73
2018-05-25T14:06:03.626Z,15.57
2018-05-25T14:08:31.775Z,23.93
2018-05-25T14:11:00.053Z,17.63
2018-05-25T14:13:28.273Z,13.77
2018-05-25T14:15:56.478Z,18.90
2018-05-25T14:18:24.690Z,18.30
2018-05-25T14:20:52.902Z,15.73
2018-05-25T14:23:21.123Z,15.40
2018-05-25T14:25:50.100Z,15.33
2018-05-25T14:28:18.315Z,13.87
2018-05-25T14:30:46.519Z,14.27
2018-05-25T14:33:14.726Z,18.33
2018-05-25T14:35:42.947Z,18.60
2018-05-25T14:38:11.174Z,16.07
2018-05-25T14:40:39.395Z,14.33
2018-05-25T14:43:07.615Z,17.57
2018-05-25T14:45:35.828Z,15.93
2018-05-25T14:48:04.050Z,16.50
2018-05-25T14:50:32.263Z,13.33
2018-05-25T14:53:00.474Z,16.40
2018-05-25T14:55:28.692Z,14.73
2018-05-25T14:57:56.919Z,14.20
2018-05-25T15:00:25.151Z,14.43
2018-05-25T15:02:54.137Z,15.87
2018-05-25T15:05:23.112Z,18.27
2018-05-25T15:07:51.314Z,18.93
2018-05-25T15:10:19.522Z,17.40
2018-05-25T15:12:47.779Z,14.67
2018-05-25T15:15:15.984Z,13.27
2018-05-25T15:17:44.202Z,16.17
2018-05-25T15:20:15.987Z,18.30
2018-05-25T15:22:44.207Z,16.20
2018-05-25T15:25:12.410Z,20.03
2018-05-25T15:27:40.622Z,16.37
2018-05-25T15:30:08.831Z,19.50
2018-05-25T15:32:37.238Z,17.87
2018-05-25T15:35:05.319Z,14.30
2018-05-25T15:37:33.563Z,15.67
2018-05-25T15:40:01.799Z,17.87
2018-05-25T15:42:30.000Z,14.23
2018-05-25T15:44:58.233Z,12.33
2018-05-25T15:47:27.170Z,13.43
2018-05-25T15:49:55.396Z,24.33
2018-05-25T15:52:23.619Z,23.33
2018-05-25T15:54:51.851Z,25.13
2018-05-25T15:57:20.126Z,27.03
2018-05-25T15:59:48.350Z,25.07
2018-05-25T16:02:16.711Z,25.73
2018-05-25T16:04:44.863Z,32.30
2018-05-25T16:07:13.080Z,26.83
2018-05-25T16:09:41.302Z,28.17
2018-05-25T16:12:09.643Z,26.80
2018-05-25T16:14:38.636Z,28.97
2018-05-25T16:17:07.619Z,33.93
2018-05-25T16:19:35.838Z,23.77
2018-05-25T16:22:04.055Z,25.50
2018-05-25T16:24:32.263Z,22.83
2018-05-25T16:27:00.486Z,21.40
2018-05-25T16:29:28.695Z,20.70
2018-05-25T16:31:56.910Z,23.10
2018-05-25T16:34:25.166Z,19.47
2018-05-25T16:36:53.364Z,18.40
2018-05-25T16:39:21.568Z,18.20
2018-05-25T16:41:49.787Z,20.93
2018-05-25T16:44:18.038Z,16.87
2018-05-25T16:46:47.023Z,18.43
2018-05-25T16:49:15.246Z,21.07
2018-05-25T16:51:44.267Z,24.30
2018-05-25T16:54:12.468Z,17.97
2018-05-25T16:56:40.675Z,16.33
2018-05-25T16:59:08.886Z,18.77
2018-05-25T17:01:37.095Z,18.83
2018-05-25T17:04:05.942Z,22.50
2018-05-25T17:06:34.155Z,22.37
2018-05-25T17:09:02.369Z,19.37
2018-05-25T17:11:30.587Z,20.83
2018-05-25T17:13:58.822Z,21.70
2018-05-25T17:16:27.047Z,23.17
2018-05-25T17:18:55.260Z,17.07
2018-05-25T17:21:23.466Z,20.10
2018-05-25T17:23:51.673Z,17.87
2018-05-25T17:26:20.694Z,17.37
2018-05-25T17:28:48.903Z,17.93
2018-05-25T17:31:17.123Z,17.43
2018-05-25T17:33:45.335Z,17.17
2018-05-25T17:36:13.539Z,25.70
2018-05-25T17:38:41.743Z,21.07
2018-05-25T17:41:09.950Z,17.37
2018-05-25T17:43:38.154Z,17.60
2018-05-25T17:46:06.372Z,17.80
2018-05-25T17:48:34.589Z,18.00
2018-05-25T17:51:02.801Z,20.77
2018-05-25T17:53:31.007Z,19.70
2018-05-25T17:55:59.226Z,19.43
2018-05-25T17:58:27.466Z,18.63
2018-05-25T18:00:55.689Z,17.53
2018-05-25T18:03:23.864Z,19.53
2018-05-25T18:05:52.839Z,21.30
2018-05-25T18:08:21.047Z,18.63
2018-05-25T18:10:49.296Z,24.13
2018-05-25T18:13:17.504Z,22.73
2018-05-25T18:15:45.731Z,21.70
2018-05-25T18:18:13.947Z,22.57
2018-05-25T18:20:42.160Z,20.93
2018-05-25T18:23:10.370Z,21.30
2018-05-25T18:25:38.576Z,22.20
2018-05-25T18:28:06.782Z,22.27
2018-05-25T18:30:35.015Z,21.77
2018-05-25T18:33:03.223Z,21.50
2018-05-25T18:35:31.431Z,21.20
2018-05-25T18:37:59.644Z,24.43
2018-05-25T18:40:27.846Z,20.40
2018-05-25T18:42:56.066Z,22.37
2018-05-25T18:45:25.058Z,19.47
2018-05-25T18:47:54.051Z,21.00
2018-05-25T18:50:22.270Z,21.80
2018-05-25T18:52:50.494Z,21.63
2018-05-25T18:55:18.728Z,23.63
2018-05-25T18:57:46.962Z,22.97
2018-05-25T19:00:15.206Z,23.53
2018-05-25T19:02:43.419Z,21.67
2018-05-25T19:05:11.640Z,24.10
2018-05-25T19:07:39.855Z,24.53
2018-05-25T19:10:08.065Z,21.80
2018-05-25T19:12:36.271Z,22.40
2018-05-25T19:15:04.663Z,24.93
2018-05-25T19:17:32.867Z,24.23
2018-05-25T19:20:01.096Z,26.57
2018-05-25T19:22:29.311Z,23.47
2018-05-25T19:24:57.518Z,22.60
2018-05-25T19:27:25.734Z,23.73
2018-05-25T19:29:53.940Z,22.33
2018-05-25T19:32:22.213Z,20.97
2018-05-25T19:34:50.398Z,41.87
2018-05-25T19:37:18.613Z,16.67
2018-05-25T19:39:46.874Z,17.63
2018-05-25T19:42:15.874Z,18.23
2018-05-25T19:44:44.075Z,20.27
2018-05-25T19:47:12.287Z,21.77
2018-05-25T19:49:40.507Z,16.30
2018-05-25T19:52:08.737Z,17.40
2018-05-25T19:54:37.828Z,17.80
2018-05-25T19:57:06.792Z,15.53
2018-05-25T19:59:35.105Z,15.03
2018-05-25T20:02:03.702Z,15.03
2018-05-25T20:04:31.980Z,63.90
2018-05-25T20:07:00.309Z,47.27
2018-05-25T20:09:28.627Z,43.80
2018-05-25T20:11:56.928Z,34.17
2018-05-25T20:14:25.317Z,26.67
2018-05-25T20:16:53.667Z,26.90
2018-05-25T20:19:21.883Z,22.67
2018-05-25T20:21:50.139Z,22.13
2018-05-25T20:24:18.433Z,22.13
2018-05-25T20:26:47.404Z,20.07
2018-05-25T20:29:15.660Z,21.40
2018-05-25T20:31:45.689Z,25.00
2018-05-25T20:34:14.046Z,21.83
2018-05-25T20:36:42.404Z,19.60
2018-05-25T20:39:10.774Z,21.20
2018-05-25T20:41:39.667Z,15.67
2018-05-25T20:44:09.257Z,19.67
2018-05-25T20:46:37.557Z,14.43
2018-05-25T20:49:05.922Z,15.53
2018-05-25T20:51:34.928Z,13.03
2018-05-25T20:54:03.231Z,16.47
2018-05-25T20:56:31.472Z,18.57
2018-05-25T20:58:59.721Z,13.67
2018-05-25T21:01:27.961Z,13.80
2018-05-25T21:03:56.188Z,13.80
2018-05-25T21:06:24.467Z,17.97
2018-05-25T21:08:52.740Z,15.13
2018-05-25T21:11:21.026Z,12.73
2018-05-25T21:13:49.254Z,13.53
2018-05-25T21:16:52.145Z,14.63
2018-05-25T21:19:20.726Z,12.60
2018-05-25T21:21:49.761Z,11.90
2018-05-25T21:24:21.355Z,14.63
2018-05-25T21:26:49.579Z,12.90
2018-05-25T21:29:17.802Z,22.17
2018-05-25T21:31:46.042Z,10.87
2018-05-25T21:34:14.280Z,11.33
2018-05-25T21:36:43.405Z,11.80
2018-05-25T21:39:11.691Z,11.30
2018-05-25T21:41:39.957Z,15.93
2018-05-25T21:44:08.528Z,11.93
2018-05-25T21:46:36.834Z,11.40
2018-05-25T21:49:05.067Z,9.97
2018-05-25T21:51:33.414Z,10.80
2018-05-25T21:54:01.631Z,11.43
2018-05-25T21:56:29.903Z,14.13
2018-05-25T21:58:58.152Z,11.43
2018-05-25T22:01:26.479Z,11.00
2018-05-25T22:03:55.537Z,10.93
2018-05-25T22:06:23.784Z,11.83
2018-05-25T22:08:52.104Z,12.13
2018-05-25T22:18:50.519Z,11.17
2018-05-25T22:21:18.740Z,12.93
2018-05-25T22:23:48.098Z,13.40
2018-05-25T22:26:16.299Z,10.23
2018-05-25T22:28:44.515Z,9.07
2018-05-25T22:31:13.519Z,11.83
2018-05-25T22:33:41.723Z,12.37
2018-05-25T22:36:09.940Z,10.73
2018-05-25T22:38:38.181Z,10.77
2018-05-25T22:41:06.427Z,10.60
2018-05-25T22:43:46.375Z,9.20
2018-05-25T22:46:32.359Z,8.67
2018-05-25T22:49:18.489Z,10.47
2018-05-25T22:52:04.448Z,9.33
2018-05-25T22:54:42.336Z,9.10
2018-05-25T22:57:10.691Z,10.17
2018-05-25T22:59:39.056Z,9.50
2018-05-25T23:02:07.279Z,8.43
2018-05-25T23:04:35.579Z,9.80
2018-05-25T23:07:03.822Z,10.87
2018-05-25T23:09:32.795Z,9.03
2018-05-25T23:12:01.834Z,8.20
2018-05-25T23:14:30.087Z,9.50
2018-05-25T23:16:58.461Z,7.90
2018-05-25T23:19:27.488Z,7.97
2018-05-25T23:21:55.672Z,8.53
2018-05-25T23:24:23.899Z,8.07
2018-05-25T23:26:52.187Z,9.37
2018-05-25T23:29:20.384Z,8.97
2018-05-25T23:31:48.583Z,10.00
2018-05-25T23:34:16.795Z,9.43
2018-05-25T23:36:45.762Z,8.03
2018-05-25T23:39:14.741Z,7.23
2018-05-25T23:41:42.947Z,7.63
2018-05-25T23:44:11.159Z,9.67
2018-05-25T23:46:39.419Z,9.83
2018-05-25T23:49:07.628Z,7.77
2018-05-25T23:51:35.850Z,7.87
2018-05-25T23:54:04.799Z,9.37
2018-05-25T23:56:33.007Z,8.50
2018-05-25T23:59:01.201Z,8.57
